Time;durP1;ratioP1;P1;durP2;ratioP2;P2;SDS_P1;SDS_P2;PMS_P1;PMS_P2;Temp;Humidity;BMP_temperature;BMP_pressure;BME280_temperature;BME280_humidity;BME280_pressure;Samples;Min_cycle;Max_cycle;Signal;HPM_P1;HPM_P2
2022/01/13 00:01:40;;;;;;;;;97.00;68.67;;;;;-9.89;97.56;101516.97;6277851;20;3677319;-43
2022/01/13 00:04:13;;;;;;;;;89.40;60.60;;;;;-9.83;98.08;101519.88;6314630;20;3670055;-47
2022/01/13 00:06:44;;;;;;;;;96.50;66.50;;;;;-9.39;97.09;101502.97;6280070;20;3671073;-45
2022/01/13 00:09:14;;;;;;;;;94.40;69.60;;;;;-9.25;96.08;101491.50;6317129;20;3662717;-43
2022/01/13 00:11:47;;;;;;;;;112.00;84.67;;;;;-9.01;96.48;101485.66;6281756;20;3687854;-43
2022/01/13 00:19:35;;;;;;;;;107.00;79.33;;;;;-9.64;97.00;101506.94;6282060;20;3689986;-42
2022/01/13 00:24:50;;;;;;;;;99.17;68.67;;;;;-9.33;97.09;101518.84;6280438;20;3690968;-44
2022/01/13 00:27:22;;;;;;;;;94.80;65.60;;;;;-9.30;96.62;101519.00;6308860;20;3667933;-42
2022/01/13 00:29:54;;;;;;;;;98.60;70.00;;;;;-9.15;96.77;101518.84;6280670;20;3665842;-42
2022/01/13 00:32:27;;;;;;;;;90.80;67.00;;;;;-9.10;97.04;101518.25;6278863;20;3655434;-42
2022/01/13 00:34:57;;;;;;;;;102.83;74.50;;;;;-9.04;97.75;101506.34;6280257;20;3695646;-42
2022/01/13 00:37:27;;;;;;;;;111.33;76.33;;;;;-8.96;97.90;101510.19;6309393;20;4456608;-43
2022/01/13 00:39:56;;;;;;;;;93.20;59.40;;;;;-9.18;98.27;101518.72;6310671;20;3674209;-43
2022/01/13 00:42:25;;;;;;;;;91.50;60.25;;;;;-9.19;98.58;101514.31;6281829;20;3666069;-44
2022/01/13 00:44:55;;;;;;;;;104.00;67.33;;;;;-8.93;98.95;101507.72;6310998;20;3689945;-43
2022/01/13 00:47:27;;;;;;;;;107.67;79.00;;;;;-8.36;97.51;101516.38;6314253;20;3679024;-43
2022/01/13 00:49:58;;;;;;;;;96.17;69.83;;;;;-9.01;96.86;101514.28;6312756;20;3672167;-42
2022/01/13 00:52:27;;;;;;;;;112.67;75.17;;;;;-9.17;97.51;101512.69;6311721;20;4470028;-42
2022/01/13 00:54:58;;;;;;;;;115.33;79.00;;;;;-9.26;97.74;101510.53;6307559;20;3701376;-43
2022/01/13 00:57:31;;;;;;;;;100.50;70.67;;;;;-9.26;96.93;101513.13;6277887;20;3680516;-42
2022/01/13 01:00:01;;;;;;;;;112.50;75.17;;;;;-9.01;97.79;101519.50;6312033;20;3693150;-43
2022/01/13 01:02:30;;;;;;;;;100.40;71.40;;;;;-8.46;97.57;101519.41;6311733;20;3679412;-42
2022/01/13 01:04:59;;;;;;;;;94.60;72.80;;;;;-9.07;97.88;101523.59;6278659;20;3658576;-42
2022/01/13 01:07:28;;;;;;;;;100.67;68.33;;;;;-9.20;98.03;101525.53;6280995;20;3685666;-44
2022/01/13 01:09:58;;;;;;;;;100.20;71.40;;;;;-8.88;98.57;101527.06;6311045;20;3665272;-41
2022/01/13 01:12:30;;;;;;;;;68.50;43.00;;;;;-8.86;98.26;101520.22;6281060;20;4407513;-42
2022/01/13 01:14:59;;;;;;;;;103.33;71.17;;;;;-9.19;97.98;101523.00;6312308;20;3691085;-41
2022/01/13 01:17:27;;;;;;;;;91.50;66.00;;;;;-9.12;98.53;101530.28;6310389;20;2693107;-42
2022/01/13 01:19:56;;;;;;;;;97.40;67.20;;;;;-9.23;98.46;101541.00;6271178;20;3665244;-41
2022/01/13 01:23:21;;;;;;;;;92.50;63.00;;;;;-9.42;98.42;101549.63;6280327;20;3671094;-41
2022/01/13 01:27:59;;;;;;;;;97.60;65.20;;;;;-9.01;96.99;101549.00;6309904;20;3674739;-42
2022/01/13 01:30:39;;;;;;;;;97.50;69.17;;;;;-9.21;97.70;101544.56;6277191;20;3678446;-42
2022/01/13 01:33:14;;;;;;;;;96.67;66.17;;;;;-9.51;97.82;101548.31;6311197;20;3671115;-43
2022/01/13 01:35:44;;;;;;;;;101.83;70.83;;;;;-9.32;98.80;101538.81;6309882;20;3692186;-42
2022/01/13 01:38:14;;;;;;;;;100.33;67.50;;;;;-9.06;99.15;101533.19;6307294;20;3688876;-44
2022/01/13 01:40:44;;;;;;;;;99.17;70.67;;;;;-9.00;98.39;101529.06;6310466;20;3679548;-45
2022/01/13 01:43:13;;;;;;;;;108.00;78.00;;;;;-9.09;98.41;101540.81;6313767;20;3697130;-43
2022/01/13 01:45:48;;;;;;;;;95.33;66.67;;;;;-8.87;97.17;101541.88;6309376;20;3670137;-43
2022/01/13 01:48:20;;;;;;;;;97.33;68.67;;;;;-8.66;96.55;101553.25;6310762;20;3677398;-42
2022/01/13 01:50:58;;;;;;;;;99.17;69.17;;;;;-9.09;96.31;101545.16;6308743;20;4454352;-44
2022/01/13 01:53:27;;;;;;;;;108.17;78.67;;;;;-8.95;96.02;101548.38;6310487;20;3683610;-43
2022/01/13 01:55:58;;;;;;;;;108.00;78.33;;;;;-9.36;96.48;101550.81;6312024;20;3695129;-43
2022/01/13 01:58:27;;;;;;;;;105.20;72.20;;;;;-9.18;96.77;101535.19;6309103;20;3679447;-42
2022/01/13 02:00:56;;;;;;;;;102.00;69.67;;;;;-9.42;97.01;101539.22;6273356;20;3695161;-43
2022/01/13 02:03:28;;;;;;;;;99.33;64.17;;;;;-9.18;97.73;101526.50;6308811;20;3688879;-43
2022/01/13 02:05:57;;;;;;;;;91.20;67.60;;;;;-8.91;97.72;101524.31;6308488;20;3654409;-42
2022/01/13 02:08:26;;;;;;;;;90.00;59.50;;;;;-8.74;96.76;101531.19;6277291;20;3674461;-42
2022/01/13 02:10:56;;;;;;;;;94.67;68.33;;;;;-8.56;96.47;101533.72;6306059;20;3666917;-47
2022/01/13 02:13:33;;;;;;;;;95.60;69.40;;;;;-8.56;96.23;101538.06;6309352;20;3668112;-41
2022/01/13 02:16:05;;;;;;;;;86.00;61.40;;;;;-8.75;96.41;101536.31;6275438;20;3655553;-42
2022/01/13 02:18:34;;;;;;;;;95.00;63.40;;;;;-8.76;96.90;101540.66;6276140;20;3657534;-43
2022/01/13 02:21:04;;;;;;;;;98.33;69.00;;;;;-8.96;96.45;101544.03;6274725;20;2911733;-43
2022/01/13 02:23:39;;;;;;;;;93.67;68.00;;;;;-10.00;96.93;101543.28;6310950;20;3674230;-42
2022/01/13 02:26:10;;;;;;;;;96.83;69.50;;;;;-9.78;96.96;101540.06;6308554;20;3665953;-43
2022/01/13 02:28:39;;;;;;;;;88.80;64.40;;;;;-9.98;96.79;101546.88;6306354;20;3668973;-43
2022/01/13 02:31:11;;;;;;;;;97.83;64.00;;;;;-9.67;97.21;101553.59;6274154;20;3677405;-44
2022/01/13 02:33:41;;;;;;;;;94.00;61.00;;;;;-9.12;95.80;101548.50;6311238;20;4432479;-47
2022/01/13 02:36:11;;;;;;;;;97.40;68.00;;;;;-9.55;95.24;101553.31;6307068;20;3657617;-46
2022/01/13 02:38:41;;;;;;;;;104.17;69.50;;;;;-9.64;94.31;101551.13;6276117;20;3685773;-45
2022/01/13 02:41:11;;;;;;;;;96.17;69.00;;;;;-9.97;94.93;101548.63;6307937;20;3666902;-44
2022/01/13 02:43:40;;;;;;;;;100.83;70.50;;;;;-9.81;94.46;101545.09;6311110;20;4449142;-41
2022/01/13 02:49:15;;;;;;;;;93.00;62.67;;;;;-9.56;95.50;101541.13;6276288;20;3675444;-42
2022/01/13 02:51:49;;;;;;;;;92.60;62.40;;;;;-9.98;95.60;101535.56;6308070;20;3655439;-41
2022/01/13 02:54:19;;;;;;;;;84.60;62.40;;;;;-9.70;95.90;101540.44;6278688;20;3665972;-43
2022/01/13 02:56:49;;;;;;;;;90.40;63.80;;;;;-9.50;95.51;101542.34;6274273;20;3672120;-43
2022/01/13 02:59:18;;;;;;;;;86.00;68.20;;;;;-9.51;96.42;101527.53;6278915;20;3646090;-43
2022/01/13 03:01:47;;;;;;;;;106.83;74.67;;;;;-9.34;95.52;101523.16;6274993;20;4448249;-43
2022/01/13 03:04:17;;;;;;;;;85.80;60.60;;;;;-9.52;95.79;101527.47;6309967;20;3674218;-43
2022/01/13 03:06:45;;;;;;;;;86.80;60.20;;;;;-9.66;96.59;101526.81;6274114;20;3659717;-41
2022/01/13 03:09:15;;;;;;;;;90.83;63.00;;;;;-9.44;96.44;101525.25;6274302;20;3674210;-44
2022/01/13 03:11:46;;;;;;;;;91.67;63.67;;;;;-9.87;97.05;101536.09;6304329;20;2915968;-42
2022/01/13 03:14:16;;;;;;;;;93.33;64.50;;;;;-8.95;96.04;101548.38;6308111;20;3666903;-43
2022/01/13 03:16:46;;;;;;;;;94.20;62.40;;;;;-9.18;94.19;101545.59;6307978;20;3673334;-44
2022/01/13 03:19:15;;;;;;;;;90.67;58.67;;;;;-9.56;95.56;101555.00;6303522;20;3673237;-42
2022/01/13 03:21:45;;;;;;;;;102.00;71.83;;;;;-9.80;96.46;101551.19;6302997;20;3685750;-45
2022/01/13 03:24:14;;;;;;;;;103.20;69.80;;;;;-9.35;96.20;101554.28;6307930;20;3678345;-44
2022/01/13 03:26:46;;;;;;;;;102.00;69.83;;;;;-8.97;94.51;101566.56;6277492;20;4438749;-42
2022/01/13 03:29:20;;;;;;;;;117.67;75.00;;;;;-9.33;94.06;101563.06;6309649;20;3689929;-43
2022/01/13 03:31:50;;;;;;;;;102.83;67.33;;;;;-9.39;95.72;101568.84;6274806;20;3681517;-41
2022/01/13 03:34:20;;;;;;;;;100.67;74.33;;;;;-8.76;94.77;101566.69;6311097;20;3681594;-42
2022/01/13 03:36:50;;;;;;;;;96.67;67.50;;;;;-8.73;94.22;101572.00;6307807;20;3676326;-42
2022/01/13 03:39:19;;;;;;;;;103.33;71.33;;;;;-8.45;94.09;101568.97;6308799;20;3672212;-41
2022/01/13 03:41:49;;;;;;;;;107.33;74.33;;;;;-8.38;94.02;101570.09;6309373;20;3678577;-42
2022/01/13 03:44:27;;;;;;;;;105.67;74.83;;;;;-8.32;93.91;101564.28;6308246;20;3692140;-44
2022/01/13 03:47:02;;;;;;;;;102.67;72.00;;;;;-8.11;95.18;101551.31;6306594;20;3682637;-42
2022/01/13 03:49:33;;;;;;;;;91.67;69.00;;;;;-8.22;94.63;101569.97;6309917;20;3664796;-43
2022/01/13 03:52:04;;;;;;;;;105.33;73.33;;;;;-8.30;95.57;101553.09;6308360;20;3685635;-42
2022/01/13 03:54:35;;;;;;;;;99.33;71.33;;;;;-8.38;96.21;101550.16;6310257;20;3676375;-44
2022/01/13 03:57:46;;;;;;;;;96.50;69.17;;;;;-8.25;96.45;101535.97;6306886;20;3666905;-43
2022/01/13 04:01:18;;;;;;;;;98.83;67.50;;;;;-8.17;96.66;101555.44;6314385;20;4446205;-43
2022/01/13 04:03:48;;;;;;;;;99.17;67.67;;;;;-7.92;94.84;101551.31;6314191;20;4449191;-44
2022/01/13 04:06:17;;;;;;;;;104.17;74.17;;;;;-8.06;94.54;101557.63;6312436;20;4452328;-42
2022/01/13 04:08:50;;;;;;;;;108.33;75.67;;;;;-8.04;94.51;101549.03;6315565;20;3677336;-42
2022/01/13 04:11:29;;;;;;;;;103.33;73.17;;;;;-8.07;94.28;101551.53;6313515;20;3676818;-43
2022/01/13 04:14:05;;;;;;;;;97.00;66.40;;;;;-8.47;95.16;101559.31;6310344;20;3657561;-43
2022/01/13 04:16:37;;;;;;;;;97.33;66.83;;;;;-8.27;95.13;101561.03;6279546;20;3682671;-42
2022/01/13 04:19:08;;;;;;;;;99.67;69.67;;;;;-8.45;95.14;101547.22;6315430;20;3685707;-42
2022/01/13 04:21:40;;;;;;;;;87.83;65.17;;;;;-8.52;96.02;101550.41;6312315;20;3676446;-43
2022/01/13 04:24:13;;;;;;;;;103.67;75.33;;;;;-8.59;96.85;101530.09;6312560;20;3682614;-42
2022/01/13 04:26:44;;;;;;;;;84.33;58.00;;;;;-8.63;97.18;101522.16;6314441;20;2893199;-40
2022/01/13 04:31:47;;;;;;;;;105.17;71.50;;;;;-8.66;97.85;101503.81;6279224;20;3675273;-39
2022/01/13 04:34:18;;;;;;;;;94.83;66.33;;;;;-8.86;97.93;101486.38;6312252;20;4433555;-40
2022/01/13 04:36:49;;;;;;;;;93.50;63.33;;;;;-8.72;98.28;101487.88;6312774;20;3674361;-38
2022/01/13 04:39:18;;;;;;;;;99.83;69.33;;;;;-8.77;98.04;101473.78;6312159;20;3678470;-39
2022/01/13 04:41:48;;;;;;;;;87.80;63.80;;;;;-8.80;98.11;101476.25;6309248;20;3675277;-39
2022/01/13 04:44:22;;;;;;;;;92.83;66.83;;;;;-8.57;97.50;101498.09;6279216;20;3677438;-39
2022/01/13 04:46:55;;;;;;;;;117.33;80.67;;;;;-8.43;97.25;101503.94;6316357;20;3711829;-40
2022/01/13 04:49:24;;;;;;;;;118.00;83.67;;;;;-8.78;97.34;101504.94;6284167;20;3707536;-40
2022/01/13 04:51:54;;;;;;;;;97.80;70.80;;;;;-8.88;97.88;101516.63;6274361;20;3677346;-39
2022/01/13 04:54:24;;;;;;;;;99.83;72.33;;;;;-9.29;98.37;101526.00;6280101;20;3683652;-39
2022/01/13 04:57:06;;;;;;;;;90.80;66.40;;;;;-9.41;98.25;101525.41;6313150;20;3664914;-38
2022/01/13 04:59:36;;;;;;;;;107.67;74.50;;;;;-9.15;98.58;101542.25;6280873;20;3682879;-40
2022/01/13 05:02:05;;;;;;;;;110.00;77.17;;;;;-9.14;97.38;101542.31;6311387;20;4450303;-40
2022/01/13 05:04:35;;;;;;;;;104.67;73.50;;;;;-9.56;97.90;101535.94;6311509;20;3697379;-40
2022/01/13 05:07:04;;;;;;;;;100.80;67.80;;;;;-9.47;98.12;101535.50;6312406;20;3671278;-39
2022/01/13 05:09:34;;;;;;;;;103.50;75.33;;;;;-9.40;98.54;101541.09;6280873;20;3682523;-38
2022/01/13 05:12:04;;;;;;;;;113.00;77.33;;;;;-9.36;98.35;101539.50;6314546;20;3696076;-39
2022/01/13 05:14:34;;;;;;;;;83.00;58.00;;;;;-9.28;98.41;101538.16;6282001;20;3639789;-38
2022/01/13 05:17:11;;;;;;;;;96.50;66.33;;;;;-8.94;98.33;101539.78;6311835;20;3677344;-42
2022/01/13 05:19:55;;;;;;;;;105.25;73.50;;;;;-9.15;97.60;101545.75;6310466;20;3624211;-38
2022/01/13 05:22:26;;;;;;;;;100.33;69.83;;;;;-9.24;98.13;101541.81;6278290;20;3689969;-38
2022/01/13 05:24:56;;;;;;;;;114.83;78.83;;;;;-9.57;98.02;101555.84;6310267;20;4458520;-40
2022/01/13 05:27:27;;;;;;;;;114.00;78.67;;;;;-10.07;97.82;101571.47;6313170;20;3696200;-41
2022/01/13 05:29:58;;;;;;;;;106.17;73.33;;;;;-9.91;97.87;101574.03;6276555;20;3688963;-38
2022/01/13 05:32:27;;;;;;;;;92.20;67.60;;;;;-10.05;97.92;101565.53;6311380;20;3665966;-39
2022/01/13 05:34:56;;;;;;;;;93.60;69.40;;;;;-9.83;96.93;101559.72;6276154;20;3656467;-39
2022/01/13 05:37:26;;;;;;;;;101.00;70.33;;;;;-9.89;97.20;101563.72;6279794;20;4454859;-40
2022/01/13 05:39:55;;;;;;;;;94.00;66.20;;;;;-9.85;97.22;101563.94;6309938;20;3665837;-40
2022/01/13 05:42:25;;;;;;;;;98.83;67.17;;;;;-9.75;97.12;101562.72;6278815;20;3672199;-38
2022/01/13 05:44:55;;;;;;;;;90.00;59.67;;;;;-10.07;97.19;101577.53;6314558;20;3647237;-40
2022/01/13 05:47:25;;;;;;;;;110.33;78.00;;;;;-10.09;97.25;101573.97;6278052;20;4448208;-40
2022/01/13 05:49:54;;;;;;;;;93.60;69.40;;;;;-9.54;96.68;101560.28;6311970;20;3655432;-44
2022/01/13 05:52:24;;;;;;;;;99.50;71.83;;;;;-9.70;96.70;101545.66;6280481;20;3669006;-40
2022/01/13 05:54:53;;;;;;;;;99.17;66.00;;;;;-9.66;97.33;101545.00;6310857;20;3684597;-39
2022/01/13 05:57:22;;;;;;;;;97.40;70.80;;;;;-9.54;97.99;101558.59;6311413;20;3673268;-39
2022/01/13 05:59:51;;;;;;;;;92.33;66.67;;;;;-9.62;98.37;101565.09;6281286;20;3665898;-39
2022/01/13 06:02:20;;;;;;;;;121.67;87.33;;;;;-9.26;97.12;101556.47;6310583;20;3713837;-40
2022/01/13 06:04:52;;;;;;;;;117.33;79.67;;;;;-9.29;96.77;101552.00;6281434;20;3692956;-39
2022/01/13 06:07:22;;;;;;;;;105.00;76.67;;;;;-9.46;97.04;101550.28;6283380;20;3680459;-39
2022/01/13 06:09:51;;;;;;;;;116.33;78.67;;;;;-9.27;97.86;101545.16;6313724;20;3699329;-42
2022/01/13 06:12:31;;;;;;;;;116.67;81.33;;;;;-9.01;97.27;101543.78;6314388;20;3698292;-40
2022/01/13 06:15:12;;;;;;;;;104.60;75.80;;;;;-8.98;96.55;101535.25;6275784;20;3675255;-41
2022/01/13 06:17:42;;;;;;;;;102.50;69.50;;;;;-8.99;96.65;101551.69;6275483;20;2573201;-40
2022/01/13 06:20:15;;;;;;;;;116.17;77.00;;;;;-9.44;96.93;101551.25;6275895;20;4464836;-39
2022/01/13 06:22:47;;;;;;;;;133.00;103.00;;;;;-9.25;97.68;101537.44;6311837;20;3722158;-40
2022/01/13 06:25:18;;;;;;;;;120.00;85.33;;;;;-8.86;96.72;101554.03;6282796;20;3708576;-40
2022/01/13 06:27:48;;;;;;;;;104.33;76.50;;;;;-9.20;96.09;101546.34;6275153;20;3684909;-41
2022/01/13 06:30:38;;;;;;;;;119.33;85.67;;;;;-9.22;95.47;101543.66;6309484;20;3707513;-40
2022/01/13 06:33:08;;;;;;;;;107.67;74.67;;;;;-9.02;95.87;101542.03;6277048;20;3687954;-39
2022/01/13 06:35:37;;;;;;;;;111.33;84.67;;;;;-9.01;96.69;101537.72;6312803;20;3697137;-40
2022/01/13 06:38:07;;;;;;;;;101.17;75.33;;;;;-8.73;96.66;101540.78;6274982;20;3676308;-40
2022/01/13 06:40:37;;;;;;;;;107.50;74.33;;;;;-9.24;97.38;101540.13;6306283;20;4452357;-39
2022/01/13 06:43:06;;;;;;;;;100.20;69.00;;;;;-9.02;97.77;101541.13;6307401;20;3674365;-42
2022/01/13 06:45:37;;;;;;;;;106.67;74.00;;;;;-8.88;97.95;101555.69;6278006;20;3701377;-40
2022/01/13 06:48:07;;;;;;;;;99.67;70.00;;;;;-8.85;97.78;101551.50;6313673;20;3667964;-39
2022/01/13 06:50:37;;;;;;;;;103.83;71.00;;;;;-8.64;97.57;101551.59;6308356;20;3674284;-40
2022/01/13 06:53:06;;;;;;;;;93.40;61.60;;;;;-8.61;97.07;101545.66;6308141;20;3672619;-40
2022/01/13 06:55:36;;;;;;;;;102.67;72.00;;;;;-8.58;97.25;101545.81;6277244;20;3690922;-40
2022/01/13 06:58:05;;;;;;;;;87.50;61.83;;;;;-8.56;97.72;101536.34;6303943;20;3677478;-39
2022/01/13 07:00:34;;;;;;;;;99.60;72.20;;;;;-8.47;98.48;101535.88;6306643;20;3667949;-40
2022/01/13 07:03:04;;;;;;;;;97.33;72.00;;;;;-8.24;97.42;101537.75;6276596;20;3667014;-40
2022/01/13 07:05:39;;;;;;;;;96.83;68.67;;;;;-8.20;96.96;101534.44;6310846;20;3676298;-41
2022/01/13 07:08:12;;;;;;;;;97.50;67.33;;;;;-8.22;97.11;101535.22;6311929;20;3660711;-39
2022/01/13 07:10:41;;;;;;;;;93.00;66.00;;;;;-8.14;96.88;101552.06;6309798;20;2911981;-40
2022/01/13 07:13:11;;;;;;;;;111.67;83.33;;;;;-8.98;96.98;101553.47;6311722;20;3687793;-40
2022/01/13 07:15:45;;;;;;;;;116.00;85.17;;;;;-9.42;97.18;101558.31;6275791;20;4463089;-40
2022/01/13 07:18:15;;;;;;;;;107.00;75.33;;;;;-9.63;97.06;101557.25;6306809;20;3696224;-40
2022/01/13 07:20:45;;;;;;;;;104.67;71.17;;;;;-9.02;96.18;101557.63;6305709;20;4434579;-39
2022/01/13 07:23:15;;;;;;;;;104.33;77.33;;;;;-9.34;96.02;101562.19;6308858;20;3677423;-39
2022/01/13 07:25:45;;;;;;;;;110.33;75.33;;;;;-8.87;95.98;101560.09;6311962;20;3700231;-40
2022/01/13 07:28:15;;;;;;;;;123.50;84.50;;;;;-8.08;97.06;101554.03;6310063;20;3581469;-40
2022/01/13 07:30:47;;;;;;;;;106.67;77.00;;;;;-8.00;97.37;101537.06;6305367;20;3680495;-40
2022/01/13 07:33:16;;;;;;;;;84.00;57.80;;;;;-7.61;97.36;101548.28;6310560;20;3652325;-40
2022/01/13 07:35:46;;;;;;;;;98.83;69.17;;;;;-7.26;96.32;101556.69;6281949;20;3674304;-40
2022/01/13 07:38:16;;;;;;;;;99.83;64.83;;;;;-7.15;95.82;101565.81;6314206;20;4443956;-40
2022/01/13 07:40:46;;;;;;;;;102.33;71.33;;;;;-7.18;95.76;101565.69;6316033;20;3667931;-40
2022/01/13 07:43:21;;;;;;;;;114.67;79.00;;;;;-7.09;95.81;101575.63;6314091;20;3705436;-40
2022/01/13 07:45:53;;;;;;;;;117.67;89.67;;;;;-6.72;95.62;101584.91;6286045;20;3707639;-39
2022/01/13 07:48:24;;;;;;;;;134.33;101.00;;;;;-7.52;96.54;101579.97;6284199;20;3714874;-40
2022/01/13 07:50:54;;;;;;;;;98.33;69.33;;;;;-7.63;96.95;101572.53;6282680;20;2913789;-40
2022/01/13 07:53:23;;;;;;;;;106.50;75.00;;;;;-7.46;97.39;101576.72;6316905;20;2736756;-42
2022/01/13 07:55:52;;;;;;;;;106.67;78.00;;;;;-7.38;96.72;101583.13;6311551;20;3690894;-41
2022/01/13 07:58:22;;;;;;;;;123.67;87.67;;;;;-6.62;94.46;101579.22;6280939;20;3701736;-41
2022/01/13 08:00:52;;;;;;;;;123.67;102.67;;;;;-6.73;94.32;101585.75;6281106;20;3716012;-40
2022/01/13 08:03:22;;;;;;;;;153.00;119.00;;;;;-6.29;94.29;101582.22;6282596;20;3726652;-42
2022/01/13 08:05:52;;;;;;;;;136.67;100.67;;;;;-5.89;93.97;101588.88;6282493;20;3719029;-40
2022/01/13 08:08:22;;;;;;;;;118.00;87.33;;;;;-5.55;94.09;101583.09;6284371;20;3692589;-38
2022/01/13 08:10:51;;;;;;;;;103.50;71.17;;;;;-5.35;93.60;101585.47;6279049;20;3672163;-40
2022/01/13 08:13:21;;;;;;;;;112.00;79.67;;;;;-5.25;92.98;101578.84;6313758;20;3683674;-41
2022/01/13 08:15:54;;;;;;;;;109.00;78.67;;;;;-5.02;93.23;101582.22;6317387;20;3678416;-40
2022/01/13 08:21:11;;;;;;;;;104.33;66.33;;;;;-4.78;92.88;101589.97;6318277;20;3659856;-39
2022/01/13 08:23:41;;;;;;;;;141.00;104.00;;;;;-4.75;92.29;101587.44;6282314;20;3718046;-48
2022/01/13 08:26:12;;;;;;;;;121.00;89.00;;;;;-4.77;92.55;101586.47;6286574;20;3700202;-40
2022/01/13 08:28:41;;;;;;;;;114.33;81.33;;;;;-4.60;92.90;101582.66;6287095;20;3692964;-39
2022/01/13 08:31:11;;;;;;;;;103.00;75.33;;;;;-4.60;93.89;101579.16;6283701;20;3675313;-39
2022/01/13 08:33:41;;;;;;;;;121.00;91.67;;;;;-4.36;92.95;101579.91;6317789;20;3693084;-40
2022/01/13 08:36:11;;;;;;;;;99.33;74.00;;;;;-4.26;93.51;101571.47;6286803;20;3667950;-40
2022/01/13 08:38:40;;;;;;;;;121.67;80.00;;;;;-4.14;92.80;101576.16;6319035;20;3694032;-39
2022/01/13 08:41:10;;;;;;;;;112.00;88.00;;;;;-4.07;92.47;101577.22;6282801;20;3681492;-40
2022/01/13 08:43:40;;;;;;;;;117.00;91.67;;;;;-4.10;91.79;101579.78;6318239;20;3687746;-40
2022/01/13 08:46:10;;;;;;;;;110.00;84.67;;;;;-3.83;91.89;101583.16;6282568;20;3673158;-40
2022/01/13 08:48:39;;;;;;;;;115.33;96.67;;;;;-4.04;92.05;101588.69;6318940;20;3688822;-40
2022/01/13 08:51:09;;;;;;;;;114.33;80.33;;;;;-3.79;92.07;101594.59;6281299;20;3682676;-40
2022/01/13 08:53:39;;;;;;;;;114.00;85.00;;;;;-3.68;91.97;101601.06;6319269;20;3689813;-40
2022/01/13 08:56:08;;;;;;;;;100.67;77.33;;;;;-3.56;91.26;101603.13;6285352;20;3655433;-40
2022/01/13 08:58:38;;;;;;;;;106.67;81.33;;;;;-3.33;91.17;101595.84;6318735;20;3678431;-40
2022/01/13 09:01:08;;;;;;;;;108.33;77.33;;;;;-3.36;91.19;101596.66;6317353;20;3679391;-40
2022/01/13 09:03:39;;;;;;;;;117.67;95.33;;;;;-3.33;91.28;101590.59;6284091;20;3695022;-41
2022/01/13 09:06:08;;;;;;;;;113.00;85.67;;;;;-3.24;91.95;101585.56;6284958;20;3690304;-41
2022/01/13 09:08:39;;;;;;;;;102.33;77.00;;;;;-3.02;91.48;101587.00;6282867;20;3658537;-41
2022/01/13 09:11:09;;;;;;;;;104.33;77.00;;;;;-2.92;91.15;101585.50;6315166;20;3670119;-40
2022/01/13 09:13:39;;;;;;;;;103.33;76.33;;;;;-2.68;90.94;101580.81;6318099;20;3673147;-40
2022/01/13 09:16:17;;;;;;;;;102.00;75.00;;;;;-2.51;91.70;101581.16;6285171;20;3676288;-40
2022/01/13 09:21:29;;;;;;;;;96.33;70.67;;;;;-2.45;90.97;101598.81;6318480;20;3657522;-40
2022/01/13 09:24:00;;;;;;;;;96.00;67.00;;;;;-2.55;91.21;101596.88;6315712;20;3658537;-40
2022/01/13 09:26:29;;;;;;;;;100.33;73.33;;;;;-2.32;90.60;101597.34;6316795;20;3679448;-40
2022/01/13 09:28:59;;;;;;;;;94.00;70.67;;;;;-2.28;90.32;101604.47;6284946;20;2897187;-42
2022/01/13 09:31:29;;;;;;;;;102.00;74.67;;;;;-2.27;90.68;101611.50;6313660;20;3687725;-43
2022/01/13 09:34:01;;;;;;;;;99.33;76.00;;;;;-2.14;90.94;101610.03;6285071;20;3663743;-40
2022/01/13 09:36:33;;;;;;;;;101.67;74.67;;;;;-2.03;90.22;101604.16;6317191;20;3673206;-41
2022/01/13 09:39:06;;;;;;;;;111.33;94.33;;;;;-1.49;90.07;101601.69;6284418;20;3689908;-40
2022/01/13 09:41:42;;;;;;;;;99.00;71.33;;;;;-1.36;89.11;101599.28;6282335;20;3656570;-41
2022/01/13 09:44:14;;;;;;;;;116.00;82.00;;;;;-1.05;89.07;101604.19;6316433;20;3696108;-41
2022/01/13 09:46:45;;;;;;;;;104.00;74.00;;;;;-1.02;87.61;101599.88;6285192;20;3667017;-42
2022/01/13 09:49:15;;;;;;;;;96.67;72.00;;;;;-1.19;87.77;101599.56;6317042;20;3646082;-42
2022/01/13 09:51:45;;;;;;;;;98.67;73.33;;;;;-0.83;88.41;101594.91;6315623;20;3659625;-42
2022/01/13 09:54:16;;;;;;;;;94.00;68.33;;;;;-1.00;87.79;101584.06;6316714;20;3651245;-41
2022/01/13 09:56:46;;;;;;;;;105.33;76.67;;;;;-0.60;87.91;101579.44;6315877;20;3675266;-41
2022/01/13 09:59:16;;;;;;;;;101.67;73.33;;;;;-0.60;88.15;101575.03;6285431;20;3673122;-42
2022/01/13 10:01:46;;;;;;;;;98.00;75.00;;;;;-0.84;88.13;101565.00;6282582;20;3649169;-44
2022/01/13 10:04:16;;;;;;;;;103.00;75.33;;;;;-0.74;88.42;101550.19;6315009;20;3668965;-45
2022/01/13 10:06:47;;;;;;;;;95.00;72.67;;;;;-0.56;88.21;101544.28;6284758;20;3648139;-42
2022/01/13 10:09:17;;;;;;;;;94.67;69.33;;;;;-0.31;87.28;101533.22;6316792;20;3629408;-43
2022/01/13 10:11:56;;;;;;;;;104.33;78.00;;;;;-0.47;87.82;101518.06;6314055;20;3672098;-42
2022/01/13 10:17:16;;;;;;;;;99.00;71.67;;;;;0.06;86.65;101499.31;6282664;20;3636672;-41
2022/01/13 10:19:49;;;;;;;;;90.67;69.00;;;;;0.07;86.21;101497.56;6312989;20;3643991;-41
2022/01/13 10:22:24;;;;;;;;;99.67;72.00;;;;;0.48;85.91;101505.03;6316297;20;3653363;-41
2022/01/13 10:24:56;;;;;;;;;92.33;68.33;;;;;0.84;84.51;101496.47;6312586;20;3631483;-41
2022/01/13 10:27:32;;;;;;;;;100.33;70.33;;;;;0.44;85.18;101490.88;6316008;20;3667011;-42
2022/01/13 10:30:17;;;;;;;;;83.50;65.00;;;;;0.55;85.13;101497.13;6315613;20;3524217;-44
2022/01/13 10:32:47;;;;;;;;;83.67;62.67;;;;;0.47;85.30;101498.81;6315415;20;3643986;-41
2022/01/13 10:35:21;;;;;;;;;94.67;70.00;;;;;0.53;86.04;101512.09;6315896;20;3639823;-42
2022/01/13 10:37:58;;;;;;;;;84.33;63.67;;;;;0.39;85.63;101513.72;6316591;20;3643982;-42
2022/01/13 10:40:34;;;;;;;;;94.33;69.33;;;;;0.42;86.36;101513.75;6312955;20;3640852;-42
2022/01/13 10:43:09;;;;;;;;;94.67;70.33;;;;;0.46;86.97;101499.69;6316407;20;3646052;-41
2022/01/13 10:45:55;;;;;;;;;100.00;74.00;;;;;0.58;85.83;101509.47;6317083;20;3662821;-41
2022/01/13 10:48:35;;;;;;;;;103.00;76.00;;;;;0.54;85.80;101491.84;6281303;20;3673233;-41
2022/01/13 10:51:07;;;;;;;;;101.33;80.67;;;;;0.50;85.79;101485.66;6313009;20;3662903;-41
2022/01/13 10:53:44;;;;;;;;;108.67;79.33;;;;;0.70;85.28;101490.22;6282702;20;3683533;-40
2022/01/13 10:56:18;;;;;;;;;107.00;78.33;;;;;0.59;85.14;101485.72;6283598;20;3689819;-41
2022/01/13 10:58:54;;;;;;;;;100.00;72.67;;;;;0.57;85.04;101487.47;6284231;20;3662708;-41
2022/01/13 11:01:34;;;;;;;;;101.67;77.33;;;;;1.06;84.70;101477.25;6278105;20;3675426;-42
2022/01/13 11:04:16;;;;;;;;;102.67;78.00;;;;;0.92;84.23;101478.91;6280598;20;3682496;-42
2022/01/13 11:06:46;;;;;;;;;114.00;91.67;;;;;0.78;84.54;101472.66;6284130;20;3707483;-41
2022/01/13 11:09:19;;;;;;;;;109.33;80.33;;;;;0.75;85.12;101475.28;6286933;20;3694104;-40
2022/01/13 11:11:58;;;;;;;;;115.33;94.00;;;;;1.21;84.20;101472.91;6287829;20;3683527;-41
2022/01/13 11:14:28;;;;;;;;;102.00;73.33;;;;;0.90;84.68;101480.69;6290236;20;3676252;-40
2022/01/13 11:16:59;;;;;;;;;110.67;82.67;;;;;0.78;84.72;101478.81;6285466;20;3692250;-41
2022/01/13 11:19:29;;;;;;;;;100.33;79.67;;;;;0.87;84.42;101478.91;6285554;20;3663799;-41
2022/01/13 11:22:02;;;;;;;;;106.00;80.33;;;;;0.99;84.33;101474.56;6316141;20;3694097;-41
2022/01/13 11:24:32;;;;;;;;;106.67;84.33;;;;;1.19;84.09;101466.75;6288311;20;3688796;-40
2022/01/13 11:27:03;;;;;;;;;108.00;83.00;;;;;1.17;83.97;101460.56;6287682;20;3679508;-41
2022/01/13 11:29:34;;;;;;;;;102.00;79.33;;;;;1.09;84.18;101466.69;6285827;20;3679478;-41
2022/01/13 11:32:07;;;;;;;;;106.33;83.33;;;;;1.12;84.29;101457.00;6285321;20;3696159;-40
2022/01/13 11:34:37;;;;;;;;;97.33;72.67;;;;;1.61;83.91;101473.13;6284843;20;3674160;-41